createdAt,value
2023-05-09T00:02:20.831Z,9.94
2023-05-09T00:04:48.144Z,9.70
2023-05-09T00:07:15.918Z,9.79
2023-05-09T00:09:43.177Z,9.79
2023-05-09T00:12:10.714Z,9.73
2023-05-09T00:14:38.228Z,9.78
2023-05-09T00:17:06.974Z,9.71
2023-05-09T00:19:34.203Z,9.60
2023-05-09T00:22:01.655Z,9.43
2023-05-09T00:24:29.108Z,9.49
2023-05-09T00:26:56.580Z,9.54
2023-05-09T00:29:24.136Z,9.61
2023-05-09T00:31:51.619Z,9.59
2023-05-09T00:34:21.522Z,9.48
2023-05-09T00:36:48.832Z,9.62
2023-05-09T00:39:16.113Z,9.66
2023-05-09T00:41:43.394Z,9.57
2023-05-09T00:44:10.671Z,9.45
2023-05-09T00:46:39.026Z,9.64
2023-05-09T00:49:06.437Z,9.52
2023-05-09T00:51:36.790Z,9.56
2023-05-09T00:54:04.047Z,9.66
2023-05-09T00:56:31.392Z,9.49
2023-05-09T00:59:00.140Z,9.69
2023-05-09T01:01:27.473Z,9.67
2023-05-09T01:03:55.614Z,9.52
2023-05-09T02:08:42.576Z,9.51
2023-05-09T02:11:09.886Z,9.38
2023-05-09T02:13:37.200Z,9.35
2023-05-09T02:16:06.331Z,9.39
2023-05-09T02:18:33.659Z,9.43
2023-05-09T02:21:01.307Z,9.37
2023-05-09T02:23:28.578Z,9.40
2023-05-09T02:25:57.594Z,9.49
2023-05-09T02:28:27.240Z,9.31
2023-05-09T02:30:58.691Z,9.25
2023-05-09T02:33:27.117Z,9.33
2023-05-09T02:35:56.320Z,9.22
2023-05-09T02:38:24.358Z,9.10
2023-05-09T02:40:52.718Z,9.15
2023-05-09T02:43:21.385Z,9.13
2023-05-09T02:45:50.142Z,9.14
2023-05-09T02:48:17.338Z,9.27
2023-05-09T02:50:44.818Z,9.13
2023-05-09T02:53:12.294Z,9.01
2023-05-09T02:55:41.882Z,9.04
2023-05-09T02:58:14.157Z,9.03
2023-05-09T03:00:43.816Z,9.05
2023-05-09T03:03:11.256Z,8.84
2023-05-09T03:05:38.576Z,9.05
2023-05-09T03:08:05.919Z,8.83
2023-05-09T03:10:33.106Z,8.87
2023-05-09T03:13:01.584Z,8.79
2023-05-09T03:15:28.854Z,8.71
2023-05-09T03:17:57.466Z,8.86
2023-05-09T03:20:26.592Z,8.96
2023-05-09T03:22:53.803Z,8.96
2023-05-09T03:25:21.250Z,8.75
2023-05-09T03:27:48.524Z,8.65
2023-05-09T03:30:15.931Z,8.71
2023-05-09T03:32:43.337Z,8.53
2023-05-09T03:35:12.009Z,8.54
2023-05-09T03:37:39.320Z,8.47
2023-05-09T03:40:08.019Z,8.60
2023-05-09T03:42:35.274Z,8.69
2023-05-09T03:45:02.549Z,8.64
2023-05-09T03:47:30.052Z,8.74
2023-05-09T03:49:57.312Z,8.65
2023-05-09T03:52:26.931Z,8.66
2023-05-09T03:54:54.184Z,8.66
2023-05-09T03:57:21.408Z,8.54
2023-05-09T03:59:48.655Z,8.45
2023-05-09T04:02:16.029Z,8.40
2023-05-09T04:04:43.322Z,8.41
2023-05-09T04:07:12.367Z,8.43
2023-05-09T04:09:42.005Z,8.48
2023-05-09T04:12:09.491Z,8.55
2023-05-09T04:14:36.719Z,8.53
2023-05-09T04:17:03.997Z,8.55
2023-05-09T04:19:31.262Z,8.49
2023-05-09T04:21:58.566Z,8.45
2023-05-09T04:24:25.806Z,8.45
2023-05-09T04:26:55.477Z,8.52
2023-05-09T04:29:22.717Z,8.71
2023-05-09T04:31:50.357Z,8.64
2023-05-09T04:34:17.702Z,8.72
2023-05-09T04:36:45.402Z,8.84
2023-05-09T04:39:12.658Z,8.99
2023-05-09T04:41:39.834Z,9.02
2023-05-09T04:44:08.423Z,9.18
2023-05-09T04:46:35.656Z,9.39
2023-05-09T04:49:02.897Z,9.52
2023-05-09T04:51:30.103Z,9.71
2023-05-09T04:53:57.370Z,10.06
2023-05-09T04:56:24.608Z,10.13
2023-05-09T04:58:51.859Z,10.35
2023-05-09T05:01:20.483Z,10.57
2023-05-09T05:03:47.958Z,10.61
2023-05-09T05:06:16.624Z,10.83
2023-05-09T05:08:43.877Z,10.39
2023-05-09T05:11:11.572Z,10.65
2023-05-09T05:13:40.252Z,10.96
2023-05-09T05:16:07.537Z,10.93
2023-05-09T05:18:36.113Z,11.18
2023-05-09T05:21:03.599Z,11.06
2023-05-09T05:23:30.911Z,10.65
2023-05-09T05:25:58.149Z,10.43
2023-05-09T05:28:26.335Z,10.76
2023-05-09T05:30:54.586Z,10.87
2023-05-09T05:33:21.840Z,10.95
2023-05-09T05:35:50.504Z,10.94
2023-05-09T05:38:17.699Z,11.00
2023-05-09T05:40:45.197Z,10.87
2023-05-09T05:43:12.451Z,10.92
2023-05-09T05:45:39.915Z,10.95
2023-05-09T05:48:07.408Z,10.96
2023-05-09T05:50:34.981Z,10.93
2023-05-09T05:53:03.575Z,11.00
2023-05-09T05:55:32.184Z,11.10
2023-05-09T05:57:59.487Z,11.23
2023-05-09T06:00:26.706Z,11.45
2023-05-09T06:02:53.997Z,11.64
2023-05-09T06:05:21.278Z,11.63
2023-05-09T06:07:48.501Z,11.76
2023-05-09T06:10:17.058Z,11.72
2023-05-09T06:12:44.561Z,11.80
2023-05-09T06:15:11.926Z,12.04
2023-05-09T06:17:41.532Z,12.19
2023-05-09T06:20:10.401Z,12.04
2023-05-09T06:22:38.089Z,12.51
2023-05-09T06:25:08.713Z,12.56
2023-05-09T06:27:38.869Z,12.63
2023-05-09T06:30:23.934Z,12.66
2023-05-09T06:32:53.483Z,12.75
2023-05-09T06:35:20.779Z,12.84
2023-05-09T06:37:48.787Z,13.09
2023-05-09T06:40:16.799Z,13.28
2023-05-09T06:42:45.645Z,13.37
2023-05-09T06:45:13.029Z,13.34
2023-05-09T06:47:41.177Z,13.40
2023-05-09T06:50:08.679Z,13.06
2023-05-09T06:52:35.814Z,13.02
2023-05-09T06:55:04.948Z,13.41
2023-05-09T06:57:32.526Z,13.58
2023-05-09T07:00:01.453Z,13.58
2023-05-09T07:02:28.730Z,13.43
2023-05-09T07:04:56.058Z,13.39
2023-05-09T07:07:24.775Z,13.50
2023-05-09T07:09:55.260Z,13.41
2023-05-09T07:12:28.046Z,13.52
2023-05-09T07:14:56.297Z,13.77
2023-05-09T07:17:25.030Z,14.11
2023-05-09T07:19:52.409Z,14.15
2023-05-09T07:22:19.640Z,14.16
2023-05-09T07:24:46.876Z,13.96
2023-05-09T07:27:14.226Z,14.04
2023-05-09T07:29:41.611Z,13.91
2023-05-09T07:32:09.203Z,13.73
2023-05-09T07:34:38.238Z,13.93
2023-05-09T07:37:05.547Z,13.92
2023-05-09T07:39:32.785Z,13.79
2023-05-09T07:42:01.113Z,13.86
2023-05-09T07:44:28.436Z,13.89
2023-05-09T07:46:57.120Z,13.92
2023-05-09T07:49:24.401Z,14.19
2023-05-09T07:51:56.219Z,14.27
2023-05-09T07:54:23.602Z,14.25
2023-05-09T07:56:51.213Z,14.13
2023-05-09T07:59:21.392Z,14.17
2023-05-09T08:01:48.794Z,14.51
2023-05-09T08:04:16.355Z,14.63
2023-05-09T08:06:44.584Z,14.72
2023-05-09T08:09:13.228Z,14.84
2023-05-09T08:11:40.462Z,14.83
2023-05-09T08:14:07.663Z,14.83
2023-05-09T08:16:35.972Z,14.79
2023-05-09T08:19:03.531Z,14.97
2023-05-09T08:21:30.723Z,15.12
2023-05-09T08:23:57.910Z,15.12
2023-05-09T08:26:26.781Z,15.03
2023-05-09T08:28:54.001Z,15.10
2023-05-09T08:31:21.231Z,15.12
2023-05-09T08:33:48.458Z,15.43
2023-05-09T08:36:19.028Z,15.72
2023-05-09T08:38:46.565Z,16.17
2023-05-09T08:41:13.931Z,16.63
2023-05-09T08:43:43.346Z,16.72
2023-05-09T08:46:11.569Z,16.92
2023-05-09T08:48:39.604Z,16.80
2023-05-09T08:51:07.712Z,16.95
2023-05-09T08:53:35.389Z,17.62
2023-05-09T08:56:04.281Z,18.13
2023-05-09T08:58:31.631Z,18.58
2023-05-09T09:01:02.037Z,19.66
2023-05-09T09:03:30.327Z,20.37
2023-05-09T09:05:58.836Z,21.10
2023-05-09T09:08:27.327Z,21.11
2023-05-09T09:10:55.097Z,21.35
2023-05-09T09:13:23.257Z,21.11
2023-05-09T09:15:54.473Z,21.44
2023-05-09T09:18:29.426Z,20.45
2023-05-09T09:20:59.473Z,20.53
2023-05-09T09:23:27.737Z,19.87
2023-05-09T09:25:59.707Z,19.54
2023-05-09T09:28:27.644Z,20.04
2023-05-09T09:30:55.152Z,19.64
2023-05-09T09:33:27.139Z,19.27
2023-05-09T09:35:56.244Z,19.49
2023-05-09T09:38:24.771Z,19.85
2023-05-09T09:40:56.299Z,19.20
2023-05-09T09:43:30.260Z,20.10
2023-05-09T09:46:00.621Z,20.44
2023-05-09T09:48:31.710Z,20.79
2023-05-09T09:51:03.968Z,20.98
2023-05-09T09:53:38.966Z,21.77
2023-05-09T09:56:06.821Z,21.61
2023-05-09T09:58:35.811Z,21.18
2023-05-09T10:01:07.314Z,21.26
2023-05-09T10:03:40.748Z,22.30
2023-05-09T10:06:11.847Z,23.13
2023-05-09T10:08:39.618Z,22.76
2023-05-09T10:11:07.205Z,22.38
2023-05-09T10:13:36.680Z,22.88
2023-05-09T10:16:05.537Z,22.55
2023-05-09T10:18:33.386Z,21.94
2023-05-09T10:21:07.930Z,22.06
2023-05-09T10:23:40.639Z,21.67
2023-05-09T10:26:16.411Z,21.61
2023-05-09T10:28:45.668Z,21.20
2023-05-09T10:31:19.839Z,21.48
2023-05-09T10:33:48.926Z,21.68
2023-05-09T10:36:19.710Z,21.91
2023-05-09T10:38:47.614Z,21.96
2023-05-09T10:41:17.014Z,21.65
2023-05-09T10:43:45.868Z,21.51
2023-05-09T10:46:13.914Z,21.57
2023-05-09T10:48:43.477Z,21.84
2023-05-09T10:51:12.396Z,22.49
2023-05-09T10:53:46.195Z,22.60
2023-05-09T10:56:23.958Z,22.34
2023-05-09T10:58:51.203Z,22.59
2023-05-09T11:01:29.410Z,23.11
2023-05-09T11:03:58.154Z,22.90
2023-05-09T11:06:47.170Z,23.22
2023-05-09T11:09:50.850Z,23.77
2023-05-09T11:12:20.510Z,22.84
2023-05-09T11:14:50.646Z,22.66
2023-05-09T11:17:29.049Z,23.14
2023-05-09T11:20:02.929Z,23.24
2023-05-09T11:22:31.340Z,22.97
2023-05-09T11:25:08.113Z,22.72
2023-05-09T11:27:42.107Z,23.44
2023-05-09T11:30:11.671Z,23.73
2023-05-09T11:32:47.201Z,24.37
2023-05-09T11:35:16.422Z,24.21
2023-05-09T11:37:48.686Z,24.01
2023-05-09T11:40:18.246Z,24.56
2023-05-09T11:42:47.096Z,24.80
2023-05-09T11:45:15.639Z,24.71
2023-05-09T11:47:44.270Z,24.46
2023-05-09T11:50:13.432Z,24.87
2023-05-09T11:52:41.192Z,23.91
2023-05-09T11:55:15.608Z,24.03
2023-05-09T11:57:45.775Z,23.89
2023-05-09T12:00:16.032Z,24.32
2023-05-09T12:02:44.812Z,24.24
2023-05-09T12:05:14.283Z,24.92
2023-05-09T12:07:41.883Z,24.12
2023-05-09T12:10:09.821Z,24.61
2023-05-09T12:12:45.096Z,23.41
2023-05-09T12:15:14.098Z,22.79
2023-05-09T12:17:48.261Z,23.45
2023-05-09T12:20:17.989Z,24.01
2023-05-09T12:22:52.517Z,24.82
2023-05-09T12:25:19.754Z,25.27
2023-05-09T12:27:49.400Z,24.91
2023-05-09T12:30:17.826Z,24.50
2023-05-09T12:32:45.198Z,24.81
2023-05-09T12:35:12.258Z,24.92
2023-05-09T12:37:39.501Z,24.34
2023-05-09T12:40:11.504Z,23.93
2023-05-09T12:42:40.546Z,24.29
2023-05-09T12:45:12.350Z,24.07
2023-05-09T12:47:39.689Z,23.80
2023-05-09T12:50:10.825Z,24.21
2023-05-09T12:52:50.134Z,23.93
2023-05-09T12:55:21.730Z,23.16
2023-05-09T12:57:59.698Z,23.27
2023-05-09T13:00:29.034Z,23.39
2023-05-09T13:02:56.497Z,23.39
2023-05-09T13:05:23.665Z,23.29
2023-05-09T13:07:51.926Z,23.18
2023-05-09T13:10:23.194Z,23.39
2023-05-09T13:12:51.632Z,23.74
2023-05-09T13:15:23.234Z,22.79
2023-05-09T13:17:52.446Z,23.36
2023-05-09T13:20:19.865Z,23.71
2023-05-09T13:22:47.205Z,23.90
2023-05-09T13:25:14.744Z,23.06
2023-05-09T13:27:42.014Z,23.80
2023-05-09T13:30:09.786Z,24.16
2023-05-09T13:32:37.210Z,23.82
2023-05-09T13:35:08.816Z,24.10
2023-05-09T13:37:36.077Z,24.43
2023-05-09T13:40:04.655Z,24.77
2023-05-09T13:42:33.519Z,23.86
2023-05-09T13:45:01.133Z,23.98
2023-05-09T13:47:32.011Z,23.73
2023-05-09T13:49:59.306Z,23.57
2023-05-09T13:52:27.893Z,23.12
2023-05-09T13:54:55.211Z,22.40
2023-05-09T13:57:22.407Z,21.96
2023-05-09T13:59:49.659Z,21.64
2023-05-09T14:02:20.604Z,21.53
2023-05-09T14:04:47.832Z,21.27
2023-05-09T14:07:15.332Z,20.88
2023-05-09T14:09:43.971Z,20.87
2023-05-09T14:12:12.491Z,20.79
2023-05-09T14:14:40.699Z,20.47
2023-05-09T14:17:08.158Z,20.19
2023-05-09T14:19:35.376Z,20.09
2023-05-09T14:22:02.565Z,20.12
2023-05-09T14:24:29.899Z,20.23
2023-05-09T14:27:00.659Z,20.42
2023-05-09T14:29:28.111Z,20.20
2023-05-09T14:31:55.457Z,20.42
2023-05-09T14:34:22.803Z,20.80
2023-05-09T14:36:50.092Z,20.52
2023-05-09T14:39:17.327Z,20.69
2023-05-09T14:41:44.624Z,20.87
2023-05-09T14:44:13.189Z,20.94
2023-05-09T14:46:41.613Z,20.83
2023-05-09T14:49:09.036Z,20.69
2023-05-09T14:51:36.246Z,20.83
2023-05-09T14:54:04.679Z,20.85
2023-05-09T14:56:32.373Z,20.87
2023-05-09T14:58:59.387Z,20.42
2023-05-09T15:01:29.177Z,20.45
2023-05-09T15:03:56.412Z,20.57
2023-05-09T15:06:23.675Z,20.82
2023-05-09T15:08:53.798Z,20.88
2023-05-09T15:11:22.551Z,20.78
2023-05-09T15:13:53.279Z,20.40
2023-05-09T15:16:20.888Z,20.44
2023-05-09T15:18:50.645Z,20.43
2023-05-09T15:21:17.838Z,20.41
2023-05-09T15:23:45.018Z,20.30
2023-05-09T15:26:12.486Z,20.17
2023-05-09T15:28:41.109Z,20.21
2023-05-09T15:31:08.392Z,20.16
2023-05-09T15:33:35.715Z,20.34
2023-05-09T15:36:06.515Z,20.42
2023-05-09T15:38:34.489Z,20.40
2023-05-09T15:41:01.701Z,20.26
2023-05-09T15:43:30.222Z,20.40
2023-05-09T15:45:57.449Z,20.27
2023-05-09T15:48:24.824Z,20.07
2023-05-09T15:50:53.011Z,19.79
2023-05-09T15:53:21.586Z,19.65
2023-05-09T15:55:48.795Z,19.87
2023-05-09T15:58:16.057Z,19.82
2023-05-09T16:00:43.279Z,19.91
2023-05-09T16:03:10.610Z,19.95
2023-05-09T16:05:37.960Z,19.81
2023-05-09T16:08:05.305Z,19.55
2023-05-09T16:10:34.157Z,19.64
2023-05-09T16:13:01.466Z,19.58
2023-05-09T16:15:28.763Z,19.58
2023-05-09T16:17:56.006Z,19.62
2023-05-09T16:20:23.596Z,19.29
2023-05-09T16:22:50.696Z,19.34
2023-05-09T16:27:40.592Z,19.10
2023-05-09T16:30:10.462Z,19.23
2023-05-09T16:32:37.693Z,19.34
2023-05-09T16:35:06.180Z,19.21
2023-05-09T16:37:35.406Z,19.21
2023-05-09T16:40:03.278Z,19.14
2023-05-09T16:42:30.598Z,18.98
2023-05-09T16:45:00.544Z,19.05
2023-05-09T16:47:27.809Z,19.11
2023-05-09T16:49:55.023Z,19.05
2023-05-09T16:52:22.249Z,18.96
2023-05-09T16:54:49.715Z,19.03
2023-05-09T16:57:16.972Z,19.05
2023-05-09T16:59:44.169Z,19.14
2023-05-09T17:02:12.791Z,19.05
2023-05-09T17:04:40.155Z,19.09
2023-05-09T17:07:07.403Z,18.98
2023-05-09T17:09:34.592Z,18.87
2023-05-09T17:12:02.066Z,18.80
2023-05-09T17:14:29.286Z,18.76
2023-05-09T17:16:56.586Z,18.60
2023-05-09T17:19:25.290Z,18.73
2023-05-09T17:21:52.731Z,18.77
2023-05-09T17:24:22.981Z,18.69
2023-05-09T17:26:50.240Z,18.67
2023-05-09T17:29:17.788Z,18.60
2023-05-09T17:31:45.265Z,18.49
2023-05-09T17:34:12.492Z,18.42
2023-05-09T17:36:42.158Z,18.28
2023-05-09T17:39:09.346Z,18.26
2023-05-09T17:41:38.160Z,18.17
2023-05-09T17:44:05.765Z,18.10
2023-05-09T17:46:33.124Z,17.86
2023-05-09T17:49:00.456Z,17.91
2023-05-09T17:51:27.933Z,17.96
2023-05-09T17:53:56.525Z,17.77
2023-05-09T17:56:24.074Z,17.86
2023-05-09T17:58:51.238Z,17.68
2023-05-09T18:01:18.887Z,17.70
2023-05-09T18:03:46.683Z,17.49
2023-05-09T18:06:14.042Z,17.48
2023-05-09T18:08:41.336Z,17.42
2023-05-09T18:11:12.101Z,17.34
2023-05-09T18:13:39.306Z,17.23
2023-05-09T18:16:08.680Z,17.15
2023-05-09T18:18:36.213Z,17.02
2023-05-09T18:21:04.809Z,16.96
2023-05-09T18:23:33.330Z,17.00
2023-05-09T18:26:00.636Z,16.92
2023-05-09T18:28:29.365Z,16.96
2023-05-09T18:30:59.102Z,16.99
2023-05-09T18:33:29.010Z,17.02
2023-05-09T18:35:56.270Z,16.85
2023-05-09T18:38:23.478Z,16.79
2023-05-09T18:40:50.737Z,16.73
2023-05-09T18:43:17.970Z,16.75
2023-05-09T18:45:46.630Z,16.80
2023-05-09T18:48:15.335Z,16.47
2023-05-09T18:50:42.621Z,16.43
2023-05-09T18:53:09.861Z,16.45
2023-05-09T18:55:37.174Z,16.42
2023-05-09T18:58:04.732Z,16.43
2023-05-09T19:00:31.949Z,16.28
2023-05-09T19:03:00.634Z,16.28
2023-05-09T19:05:27.916Z,16.31
2023-05-09T19:07:55.139Z,16.19
2023-05-09T19:10:22.379Z,16.09
2023-05-09T19:12:49.719Z,16.18
2023-05-09T19:15:17.035Z,16.15
2023-05-09T19:17:44.357Z,16.20
2023-05-09T19:20:13.645Z,16.18
2023-05-09T19:22:41.182Z,16.03
2023-05-09T19:25:09.686Z,16.05
2023-05-09T19:27:36.946Z,16.00
2023-05-09T19:30:05.159Z,16.01
2023-05-09T19:32:32.411Z,15.93
2023-05-09T19:35:00.131Z,15.81
2023-05-09T19:37:29.091Z,15.64
2023-05-09T19:39:57.738Z,15.67
2023-05-09T19:42:24.996Z,15.72
2023-05-09T19:44:53.757Z,15.83
2023-05-09T19:47:20.966Z,15.81
2023-05-09T19:49:48.434Z,15.72
2023-05-09T19:52:15.646Z,15.63
2023-05-09T19:54:44.283Z,15.69
2023-05-09T19:57:11.567Z,15.64
2023-05-09T19:59:40.255Z,15.55
2023-05-09T20:02:07.696Z,15.52
2023-05-09T20:04:38.732Z,15.55
2023-05-09T20:07:06.169Z,15.63
2023-05-09T20:09:33.374Z,15.47
2023-05-09T20:12:02.731Z,15.39
2023-05-09T20:14:29.908Z,15.40
2023-05-09T20:16:57.502Z,15.41
2023-05-09T20:19:24.873Z,15.30
2023-05-09T20:21:52.141Z,15.34
2023-05-09T20:24:19.557Z,15.19
2023-05-09T20:26:46.732Z,15.04
2023-05-09T20:29:15.385Z,15.18
2023-05-09T20:31:43.308Z,15.12
2023-05-09T20:34:10.370Z,15.08
2023-05-09T20:36:37.515Z,15.04
2023-05-09T20:39:05.011Z,15.16
2023-05-09T20:41:32.222Z,15.10
2023-05-09T20:43:59.422Z,14.92
2023-05-09T20:46:28.096Z,14.85
2023-05-09T20:48:55.438Z,15.04
2023-05-09T20:51:22.697Z,14.79
2023-05-09T20:53:50.955Z,14.92
2023-05-09T20:56:18.193Z,14.85
2023-05-09T20:58:45.642Z,14.77
2023-05-09T21:01:12.924Z,14.66
2023-05-09T21:03:41.602Z,14.81
2023-05-09T21:06:10.152Z,14.65
2023-05-09T21:08:37.738Z,14.51
2023-05-09T21:11:04.986Z,14.56
2023-05-09T21:13:32.416Z,14.37
2023-05-09T21:15:59.646Z,14.56
2023-05-09T21:18:26.845Z,14.46
2023-05-09T21:20:55.474Z,14.57
2023-05-09T21:23:24.182Z,14.44
2023-05-09T21:25:51.412Z,14.32
2023-05-09T21:28:18.641Z,14.36
2023-05-09T21:30:50.670Z,14.33
2023-05-09T21:33:18.011Z,14.38
2023-05-09T21:35:45.394Z,14.38
2023-05-09T21:38:14.299Z,14.31
2023-05-09T21:40:41.757Z,13.96
2023-05-09T21:43:09.102Z,13.96
2023-05-09T21:45:36.632Z,13.99
2023-05-09T21:48:04.396Z,14.10
2023-05-09T21:50:31.716Z,14.00
2023-05-09T21:52:59.100Z,13.93
2023-05-09T21:55:27.790Z,14.03
2023-05-09T21:57:55.069Z,13.95
2023-05-09T22:00:22.423Z,13.99
2023-05-09T22:02:54.639Z,13.86
2023-05-09T22:05:22.966Z,13.67
2023-05-09T22:07:50.504Z,13.58
2023-05-09T22:10:19.835Z,13.68
2023-05-09T22:12:48.569Z,13.61
2023-05-09T22:15:15.953Z,13.40
2023-05-09T22:17:43.300Z,13.50
2023-05-09T22:20:11.991Z,13.52
2023-05-09T22:22:39.210Z,13.51
2023-05-09T22:25:10.064Z,13.57
2023-05-09T22:27:37.571Z,13.69
2023-05-09T22:30:08.119Z,13.37
2023-05-09T22:32:35.353Z,13.47
2023-05-09T22:35:02.883Z,13.53
2023-05-09T22:37:30.554Z,13.39
2023-05-09T22:39:57.755Z,13.32
2023-05-09T22:42:28.336Z,13.23
2023-05-09T22:44:56.352Z,13.19
2023-05-09T22:47:25.090Z,13.24
2023-05-09T22:49:52.575Z,13.11
2023-05-09T22:52:20.935Z,12.96
2023-05-09T22:54:48.099Z,13.01
2023-05-09T22:57:15.479Z,12.81
2023-05-09T22:59:42.994Z,12.93
2023-05-09T23:02:10.370Z,12.79
2023-05-09T23:04:47.726Z,12.57
2023-05-09T23:07:15.268Z,12.57
2023-05-09T23:09:42.563Z,12.76
2023-05-09T23:12:09.784Z,12.76
2023-05-09T23:14:38.288Z,12.62
2023-05-09T23:17:05.532Z,12.66
2023-05-09T23:19:32.848Z,12.71
2023-05-09T23:22:01.466Z,12.73
2023-05-09T23:24:28.763Z,12.69
2023-05-09T23:26:55.971Z,12.58
2023-05-09T23:29:23.608Z,12.41
2023-05-09T23:31:51.049Z,12.29
2023-05-09T23:34:18.582Z,12.37
2023-05-09T23:36:45.767Z,12.41
2023-05-09T23:39:15.754Z,12.35
2023-05-09T23:41:43.038Z,12.34
2023-05-09T23:44:10.986Z,12.32
2023-05-09T23:46:38.147Z,12.39
2023-05-09T23:49:05.322Z,12.33
2023-05-09T23:51:32.589Z,12.15
2023-05-09T23:53:59.839Z,12.24
2023-05-09T23:56:28.471Z,12.28
2023-05-09T23:58:55.740Z,12.11
